sensor_id;sensor_type;location;lat;lon;timestamp;P1;P2;P0
45700;PMS5003;36277;32.852;-116.998;2022-12-16T00:01:20;2.00;2.00;2.00
45700;PMS5003;36277;32.852;-116.998;2022-12-16T00:03:50;1.20;1.20;1.00
45700;PMS5003;36277;32.852;-116.998;2022-12-16T00:06:18;1.00;1.00;1.00
45700;PMS5003;36277;32.852;-116.998;2022-12-16T00:08:45;1.60;1.60;1.60
45700;PMS5003;36277;32.852;-116.998;2022-12-16T00:11:12;1.00;1.00;1.00
45700;PMS5003;36277;32.852;-116.998;2022-12-16T00:13:39;2.00;2.00;1.80
45700;PMS5003;36277;32.852;-116.998;2022-12-16T00:16:06;2.20;2.20;2.00
45700;PMS5003;36277;32.852;-116.998;2022-12-16T00:18:34;0.00;0.00;0.00
45700;PMS5003;36277;32.852;-116.998;2022-12-16T00:21:01;1.80;1.80;1.00
45700;PMS5003;36277;32.852;-116.998;2022-12-16T00:23:28;1.00;1.00;1.00
45700;PMS5003;36277;32.852;-116.998;2022-12-16T00:25:56;2.00;2.00;2.00
45700;PMS5003;36277;32.852;-116.998;2022-12-16T00:28:22;2.20;2.20;2.00
45700;PMS5003;36277;32.852;-116.998;2022-12-16T00:30:50;2.00;2.00;2.00
45700;PMS5003;36277;32.852;-116.998;2022-12-16T00:33:18;1.00;1.00;1.00
45700;PMS5003;36277;32.852;-116.998;2022-12-16T00:35:45;2.00;2.00;2.00
45700;PMS5003;36277;32.852;-116.998;2022-12-16T00:38:12;2.00;2.00;1.60
45700;PMS5003;36277;32.852;-116.998;2022-12-16T00:40:39;1.60;1.60;1.00
45700;PMS5003;36277;32.852;-116.998;2022-12-16T00:43:06;1.00;1.00;1.00
45700;PMS5003;36277;32.852;-116.998;2022-12-16T00:45:32;1.00;1.00;1.00
45700;PMS5003;36277;32.852;-116.998;2022-12-16T00:47:59;2.00;2.00;2.00
45700;PMS5003;36277;32.852;-116.998;2022-12-16T00:50:26;1.80;1.80;1.40
45700;PMS5003;36277;32.852;-116.998;2022-12-16T00:52:52;1.00;1.00;0.80
45700;PMS5003;36277;32.852;-116.998;2022-12-16T00:55:19;3.00;3.00;2.00
45700;PMS5003;36277;32.852;-116.998;2022-12-16T00:57:45;1.00;1.00;1.00
45700;PMS5003;36277;32.852;-116.998;2022-12-16T01:00:12;2.00;2.00;2.00
45700;PMS5003;36277;32.852;-116.998;2022-12-16T01:02:40;2.00;2.00;2.00
45700;PMS5003;36277;32.852;-116.998;2022-12-16T01:05:09;2.00;2.00;2.00
45700;PMS5003;36277;32.852;-116.998;2022-12-16T01:07:36;1.60;1.60;1.60
45700;PMS5003;36277;32.852;-116.998;2022-12-16T01:10:03;2.00;2.00;2.00
45700;PMS5003;36277;32.852;-116.998;2022-12-16T01:12:30;2.00;2.00;2.00
45700;PMS5003;36277;32.852;-116.998;2022-12-16T01:14:57;2.00;2.00;2.00
45700;PMS5003;36277;32.852;-116.998;2022-12-16T01:17:24;2.40;2.40;2.00
45700;PMS5003;36277;32.852;-116.998;2022-12-16T01:19:51;1.40;1.40;1.20
45700;PMS5003;36277;32.852;-116.998;2022-12-16T01:22:18;1.40;1.40;1.20
45700;PMS5003;36277;32.852;-116.998;2022-12-16T01:24:46;2.00;2.00;2.00
45700;PMS5003;36277;32.852;-116.998;2022-12-16T01:27:12;1.00;1.00;1.00
45700;PMS5003;36277;32.852;-116.998;2022-12-16T01:29:39;2.00;2.00;2.00
45700;PMS5003;36277;32.852;-116.998;2022-12-16T01:32:08;1.40;1.40;1.40
45700;PMS5003;36277;32.852;-116.998;2022-12-16T01:34:38;2.00;2.00;2.00
45700;PMS5003;36277;32.852;-116.998;2022-12-16T01:37:05;3.00;3.00;2.60
45700;PMS5003;36277;32.852;-116.998;2022-12-16T01:39:31;2.00;2.00;2.00
45700;PMS5003;36277;32.852;-116.998;2022-12-16T01:41:58;2.00;2.00;2.00
45700;PMS5003;36277;32.852;-116.998;2022-12-16T01:44:24;1.40;1.40;1.40
45700;PMS5003;36277;32.852;-116.998;2022-12-16T01:46:59;2.00;2.00;2.00
45700;PMS5003;36277;32.852;-116.998;2022-12-16T01:52:23;2.00;2.00;2.00
45700;PMS5003;36277;32.852;-116.998;2022-12-16T01:57:29;1.80;1.80;1.80
45700;PMS5003;36277;32.852;-116.998;2022-12-16T02:00:20;2.00;2.00;2.00
45700;PMS5003;36277;32.852;-116.998;2022-12-16T02:02:46;2.40;2.40;2.20
45700;PMS5003;36277;32.852;-116.998;2022-12-16T02:05:13;1.80;1.80;1.80
45700;PMS5003;36277;32.852;-116.998;2022-12-16T02:08:29;2.00;2.00;2.00
45700;PMS5003;36277;32.852;-116.998;2022-12-16T02:16:34;2.20;2.20;2.00
45700;PMS5003;36277;32.852;-116.998;2022-12-16T02:29:21;2.60;2.60;2.20
45700;PMS5003;36277;32.852;-116.998;2022-12-16T02:31:59;2.00;2.00;2.00
45700;PMS5003;36277;32.852;-116.998;2022-12-16T02:34:40;2.00;2.00;2.00
45700;PMS5003;36277;32.852;-116.998;2022-12-16T02:46:08;2.60;2.60;2.40
45700;PMS5003;36277;32.852;-116.998;2022-12-16T02:48:35;2.60;2.60;2.00
45700;PMS5003;36277;32.852;-116.998;2022-12-16T02:51:01;2.80;2.80;2.00
45700;PMS5003;36277;32.852;-116.998;2022-12-16T02:53:27;2.00;2.00;2.00
45700;PMS5003;36277;32.852;-116.998;2022-12-16T02:56:16;3.00;3.00;3.00
45700;PMS5003;36277;32.852;-116.998;2022-12-16T03:01:51;2.00;2.00;1.00
45700;PMS5003;36277;32.852;-116.998;2022-12-16T03:07:14;4.00;4.00;3.40
45700;PMS5003;36277;32.852;-116.998;2022-12-16T03:09:44;2.80;2.80;2.80
45700;PMS5003;36277;32.852;-116.998;2022-12-16T03:12:12;3.00;3.00;3.00
45700;PMS5003;36277;32.852;-116.998;2022-12-16T03:14:42;1.00;1.00;1.00
45700;PMS5003;36277;32.852;-116.998;2022-12-16T03:17:13;4.00;4.00;3.60
45700;PMS5003;36277;32.852;-116.998;2022-12-16T03:19:44;3.40;3.40;3.00
45700;PMS5003;36277;32.852;-116.998;2022-12-16T03:22:16;2.80;2.80;2.60
45700;PMS5003;36277;32.852;-116.998;2022-12-16T03:24:47;3.00;3.00;2.60
45700;PMS5003;36277;32.852;-116.998;2022-12-16T03:29:57;3.20;3.20;3.00
45700;PMS5003;36277;32.852;-116.998;2022-12-16T03:32:40;2.00;2.00;1.20
45700;PMS5003;36277;32.852;-116.998;2022-12-16T03:35:21;3.80;3.80;3.00
45700;PMS5003;36277;32.852;-116.998;2022-12-16T03:37:53;3.00;3.00;2.20
45700;PMS5003;36277;32.852;-116.998;2022-12-16T03:40:22;2.40;2.40;2.40
45700;PMS5003;36277;32.852;-116.998;2022-12-16T03:42:50;3.00;3.00;2.80
45700;PMS5003;36277;32.852;-116.998;2022-12-16T03:45:21;3.00;3.00;3.00
45700;PMS5003;36277;32.852;-116.998;2022-12-16T03:47:55;2.00;2.00;1.80
45700;PMS5003;36277;32.852;-116.998;2022-12-16T03:50:24;3.40;3.00;2.60
45700;PMS5003;36277;32.852;-116.998;2022-12-16T03:52:55;2.00;2.00;2.00
45700;PMS5003;36277;32.852;-116.998;2022-12-16T03:55:21;2.20;2.20;2.00
45700;PMS5003;36277;32.852;-116.998;2022-12-16T03:57:48;2.00;2.00;2.00
45700;PMS5003;36277;32.852;-116.998;2022-12-16T04:00:14;3.40;3.40;3.00
45700;PMS5003;36277;32.852;-116.998;2022-12-16T04:02:41;2.80;2.80;2.60
45700;PMS5003;36277;32.852;-116.998;2022-12-16T04:05:08;1.20;1.20;0.60
45700;PMS5003;36277;32.852;-116.998;2022-12-16T04:07:35;4.80;4.80;4.00
45700;PMS5003;36277;32.852;-116.998;2022-12-16T04:10:02;5.00;5.00;4.00
45700;PMS5003;36277;32.852;-116.998;2022-12-16T04:12:30;3.80;3.80;3.40
45700;PMS5003;36277;32.852;-116.998;2022-12-16T04:15:14;4.80;4.80;4.00
45700;PMS5003;36277;32.852;-116.998;2022-12-16T04:17:59;5.80;5.80;4.80
45700;PMS5003;36277;32.852;-116.998;2022-12-16T04:20:44;5.60;5.60;4.20
45700;PMS5003;36277;32.852;-116.998;2022-12-16T04:23:32;6.00;6.00;6.00
45700;PMS5003;36277;32.852;-116.998;2022-12-16T04:26:20;6.40;6.40;5.80
45700;PMS5003;36277;32.852;-116.998;2022-12-16T04:28:47;6.00;6.00;5.00
45700;PMS5003;36277;32.852;-116.998;2022-12-16T04:31:14;6.00;6.00;5.00
45700;PMS5003;36277;32.852;-116.998;2022-12-16T04:33:40;5.40;5.40;4.40
45700;PMS5003;36277;32.852;-116.998;2022-12-16T04:36:24;6.00;6.00;5.00
45700;PMS5003;36277;32.852;-116.998;2022-12-16T04:39:09;4.80;4.80;4.20
45700;PMS5003;36277;32.852;-116.998;2022-12-16T04:41:54;5.40;5.40;5.00
45700;PMS5003;36277;32.852;-116.998;2022-12-16T04:44:39;5.00;5.00;4.00
45700;PMS5003;36277;32.852;-116.998;2022-12-16T04:47:26;4.80;4.80;4.40
45700;PMS5003;36277;32.852;-116.998;2022-12-16T04:50:10;5.20;5.20;5.00
45700;PMS5003;36277;32.852;-116.998;2022-12-16T04:52:54;6.80;6.80;5.80
45700;PMS5003;36277;32.852;-116.998;2022-12-16T04:55:39;6.80;6.80;6.00
45700;PMS5003;36277;32.852;-116.998;2022-12-16T04:58:23;5.00;5.00;4.00
45700;PMS5003;36277;32.852;-116.998;2022-12-16T05:01:08;4.80;4.80;4.00
45700;PMS5003;36277;32.852;-116.998;2022-12-16T05:03:52;2.00;2.00;2.00
45700;PMS5003;36277;32.852;-116.998;2022-12-16T05:06:37;5.20;5.20;4.60
45700;PMS5003;36277;32.852;-116.998;2022-12-16T05:09:21;6.00;6.00;5.00
45700;PMS5003;36277;32.852;-116.998;2022-12-16T05:12:05;6.40;6.40;6.00
45700;PMS5003;36277;32.852;-116.998;2022-12-16T05:14:50;3.00;3.00;2.20
45700;PMS5003;36277;32.852;-116.998;2022-12-16T05:17:34;6.20;6.20;5.00
45700;PMS5003;36277;32.852;-116.998;2022-12-16T05:20:19;5.40;5.40;5.00
45700;PMS5003;36277;32.852;-116.998;2022-12-16T05:23:03;4.00;4.00;4.00
45700;PMS5003;36277;32.852;-116.998;2022-12-16T05:25:48;3.60;3.60;3.00
45700;PMS5003;36277;32.852;-116.998;2022-12-16T05:28:32;6.00;6.00;6.00
45700;PMS5003;36277;32.852;-116.998;2022-12-16T05:31:16;5.00;5.00;4.00
45700;PMS5003;36277;32.852;-116.998;2022-12-16T05:34:01;23.75;23.50;15.75
45700;PMS5003;36277;32.852;-116.998;2022-12-16T05:36:45;25.00;24.50;15.00
45700;PMS5003;36277;32.852;-116.998;2022-12-16T05:39:30;20.00;20.00;14.00
45700;PMS5003;36277;32.852;-116.998;2022-12-16T05:42:14;16.00;16.00;10.00
45700;PMS5003;36277;32.852;-116.998;2022-12-16T05:44:59;13.25;13.25;10.00
45700;PMS5003;36277;32.852;-116.998;2022-12-16T05:47:46;14.00;14.00;10.60
45700;PMS5003;36277;32.852;-116.998;2022-12-16T05:50:32;16.60;16.00;11.00
45700;PMS5003;36277;32.852;-116.998;2022-12-16T05:53:16;10.80;10.80;9.20
45700;PMS5003;36277;32.852;-116.998;2022-12-16T05:56:01;9.00;9.00;7.00
45700;PMS5003;36277;32.852;-116.998;2022-12-16T05:58:45;8.00;8.00;6.00
45700;PMS5003;36277;32.852;-116.998;2022-12-16T06:01:30;8.40;8.40;6.00
45700;PMS5003;36277;32.852;-116.998;2022-12-16T06:04:14;5.20;5.20;4.80
45700;PMS5003;36277;32.852;-116.998;2022-12-16T06:06:59;7.40;7.40;5.00
45700;PMS5003;36277;32.852;-116.998;2022-12-16T06:09:43;5.00;5.00;5.00
45700;PMS5003;36277;32.852;-116.998;2022-12-16T06:12:27;5.00;5.00;4.60
45700;PMS5003;36277;32.852;-116.998;2022-12-16T06:15:12;5.80;5.80;4.40
45700;PMS5003;36277;32.852;-116.998;2022-12-16T06:17:56;4.60;4.60;4.00
45700;PMS5003;36277;32.852;-116.998;2022-12-16T06:20:41;4.40;4.40;4.00
45700;PMS5003;36277;32.852;-116.998;2022-12-16T06:23:25;5.60;5.60;4.60
45700;PMS5003;36277;32.852;-116.998;2022-12-16T06:26:10;4.80;4.80;4.60
45700;PMS5003;36277;32.852;-116.998;2022-12-16T06:28:55;2.00;2.00;1.00
45700;PMS5003;36277;32.852;-116.998;2022-12-16T06:31:39;6.00;6.00;5.00
45700;PMS5003;36277;32.852;-116.998;2022-12-16T06:34:24;7.60;7.60;6.60
45700;PMS5003;36277;32.852;-116.998;2022-12-16T06:37:08;24.75;24.75;20.00
45700;PMS5003;36277;32.852;-116.998;2022-12-16T06:39:52;36.75;33.75;23.25
45700;PMS5003;36277;32.852;-116.998;2022-12-16T06:42:40;21.00;21.00;15.40
45700;PMS5003;36277;32.852;-116.998;2022-12-16T06:45:25;38.75;34.75;23.00
45700;PMS5003;36277;32.852;-116.998;2022-12-16T06:48:10;53.50;45.25;30.00
45700;PMS5003;36277;32.852;-116.998;2022-12-16T06:50:54;49.00;42.00;29.75
45700;PMS5003;36277;32.852;-116.998;2022-12-16T06:53:39;46.75;40.00;29.00
45700;PMS5003;36277;32.852;-116.998;2022-12-16T06:56:23;50.00;41.75;31.00
45700;PMS5003;36277;32.852;-116.998;2022-12-16T06:59:08;52.00;44.25;32.00
45700;PMS5003;36277;32.852;-116.998;2022-12-16T07:02:00;50.75;43.25;30.00
45700;PMS5003;36277;32.852;-116.998;2022-12-16T07:04:44;47.50;41.25;31.00
45700;PMS5003;36277;32.852;-116.998;2022-12-16T07:07:29;45.75;39.75;31.00
45700;PMS5003;36277;32.852;-116.998;2022-12-16T07:10:13;49.50;42.50;32.25
45700;PMS5003;36277;32.852;-116.998;2022-12-16T07:13:01;48.25;41.50;31.25
45700;PMS5003;36277;32.852;-116.998;2022-12-16T07:15:45;28.00;28.00;23.00
45700;PMS5003;36277;32.852;-116.998;2022-12-16T07:18:30;30.75;30.00;22.00
45700;PMS5003;36277;32.852;-116.998;2022-12-16T07:21:14;30.00;29.50;22.75
45700;PMS5003;36277;32.852;-116.998;2022-12-16T07:23:59;31.00;30.00;22.75
45700;PMS5003;36277;32.852;-116.998;2022-12-16T07:26:43;23.25;23.25;19.75
45700;PMS5003;36277;32.852;-116.998;2022-12-16T07:29:27;32.75;31.75;23.25
45700;PMS5003;36277;32.852;-116.998;2022-12-16T07:32:12;27.33;27.33;22.00
45700;PMS5003;36277;32.852;-116.998;2022-12-16T07:34:56;35.00;33.00;25.00
45700;PMS5003;36277;32.852;-116.998;2022-12-16T07:37:41;32.00;30.25;23.00
45700;PMS5003;36277;32.852;-116.998;2022-12-16T07:40:25;28.50;28.50;22.00
45700;PMS5003;36277;32.852;-116.998;2022-12-16T07:43:10;22.25;22.25;19.00
45700;PMS5003;36277;32.852;-116.998;2022-12-16T07:45:54;30.25;29.75;22.75
45700;PMS5003;36277;32.852;-116.998;2022-12-16T07:48:39;25.00;25.00;21.00
45700;PMS5003;36277;32.852;-116.998;2022-12-16T07:51:40;23.50;23.50;18.75
45700;PMS5003;36277;32.852;-116.998;2022-12-16T07:54:25;25.25;24.75;20.75
45700;PMS5003;36277;32.852;-116.998;2022-12-16T07:57:23;27.50;27.50;21.75
45700;PMS5003;36277;32.852;-116.998;2022-12-16T08:00:08;21.50;21.50;17.50
45700;PMS5003;36277;32.852;-116.998;2022-12-16T08:02:53;23.25;23.00;19.25
45700;PMS5003;36277;32.852;-116.998;2022-12-16T08:05:38;24.50;24.50;20.50
45700;PMS5003;36277;32.852;-116.998;2022-12-16T08:08:22;22.50;22.50;18.00
45700;PMS5003;36277;32.852;-116.998;2022-12-16T08:11:07;24.25;24.25;20.00
45700;PMS5003;36277;32.852;-116.998;2022-12-16T08:13:51;24.00;24.00;20.00
45700;PMS5003;36277;32.852;-116.998;2022-12-16T08:16:36;24.50;24.50;20.25
45700;PMS5003;36277;32.852;-116.998;2022-12-16T08:19:20;20.50;20.50;16.00
45700;PMS5003;36277;32.852;-116.998;2022-12-16T08:22:04;17.75;17.75;16.50
45700;PMS5003;36277;32.852;-116.998;2022-12-16T08:24:49;14.00;14.00;11.00
45700;PMS5003;36277;32.852;-116.998;2022-12-16T08:27:33;20.25;20.25;16.00
45700;PMS5003;36277;32.852;-116.998;2022-12-16T08:30:20;23.50;23.50;20.25
45700;PMS5003;36277;32.852;-116.998;2022-12-16T08:33:05;19.75;19.75;18.25
45700;PMS5003;36277;32.852;-116.998;2022-12-16T08:35:49;22.75;22.75;19.00
45700;PMS5003;36277;32.852;-116.998;2022-12-16T08:38:36;19.25;19.25;17.50
45700;PMS5003;36277;32.852;-116.998;2022-12-16T08:41:21;16.25;16.25;14.75
45700;PMS5003;36277;32.852;-116.998;2022-12-16T08:44:10;22.00;22.00;19.00
45700;PMS5003;36277;32.852;-116.998;2022-12-16T08:46:55;20.25;19.75;16.50
45700;PMS5003;36277;32.852;-116.998;2022-12-16T08:49:39;19.50;19.50;17.00
45700;PMS5003;36277;32.852;-116.998;2022-12-16T08:52:24;16.50;16.50;14.75
45700;PMS5003;36277;32.852;-116.998;2022-12-16T08:55:08;20.00;20.00;19.00
45700;PMS5003;36277;32.852;-116.998;2022-12-16T08:57:53;19.25;19.25;16.00
45700;PMS5003;36277;32.852;-116.998;2022-12-16T09:00:38;17.00;17.00;15.00
45700;PMS5003;36277;32.852;-116.998;2022-12-16T09:03:23;19.00;19.00;17.00
45700;PMS5003;36277;32.852;-116.998;2022-12-16T09:06:07;17.50;17.50;14.75
45700;PMS5003;36277;32.852;-116.998;2022-12-16T09:08:52;17.25;17.25;14.75
45700;PMS5003;36277;32.852;-116.998;2022-12-16T09:11:36;18.50;18.50;16.00
45700;PMS5003;36277;32.852;-116.998;2022-12-16T09:14:20;18.00;18.00;16.50
45700;PMS5003;36277;32.852;-116.998;2022-12-16T09:17:05;19.25;19.25;16.25
45700;PMS5003;36277;32.852;-116.998;2022-12-16T09:19:49;15.25;15.25;14.25
45700;PMS5003;36277;32.852;-116.998;2022-12-16T09:22:34;18.50;18.50;15.75
45700;PMS5003;36277;32.852;-116.998;2022-12-16T09:25:18;18.25;18.25;15.50
45700;PMS5003;36277;32.852;-116.998;2022-12-16T09:28:03;18.00;18.00;15.75
45700;PMS5003;36277;32.852;-116.998;2022-12-16T09:30:47;18.00;18.00;16.00
45700;PMS5003;36277;32.852;-116.998;2022-12-16T09:33:32;18.75;18.75;15.50
45700;PMS5003;36277;32.852;-116.998;2022-12-16T09:36:16;14.00;14.00;13.00
45700;PMS5003;36277;32.852;-116.998;2022-12-16T09:39:00;12.50;12.50;12.00
45700;PMS5003;36277;32.852;-116.998;2022-12-16T09:41:57;18.50;18.50;15.50
45700;PMS5003;36277;32.852;-116.998;2022-12-16T09:45:02;14.00;14.00;12.50
45700;PMS5003;36277;32.852;-116.998;2022-12-16T09:48:16;15.25;15.25;13.75
45700;PMS5003;36277;32.852;-116.998;2022-12-16T09:51:12;11.50;11.50;11.00
45700;PMS5003;36277;32.852;-116.998;2022-12-16T09:53:57;15.25;15.25;13.00
45700;PMS5003;36277;32.852;-116.998;2022-12-16T09:56:45;12.00;12.00;10.00
45700;PMS5003;36277;32.852;-116.998;2022-12-16T09:59:32;12.25;12.25;10.50
45700;PMS5003;36277;32.852;-116.998;2022-12-16T10:02:22;14.75;14.75;13.75
45700;PMS5003;36277;32.852;-116.998;2022-12-16T10:05:12;11.75;11.75;10.75
45700;PMS5003;36277;32.852;-116.998;2022-12-16T10:08:16;11.25;11.25;10.00
45700;PMS5003;36277;32.852;-116.998;2022-12-16T10:11:17;13.25;13.25;12.25
45700;PMS5003;36277;32.852;-116.998;2022-12-16T10:14:13;14.75;14.75;12.00
45700;PMS5003;36277;32.852;-116.998;2022-12-16T10:17:09;13.00;13.00;12.00
45700;PMS5003;36277;32.852;-116.998;2022-12-16T10:20:01;12.00;12.00;10.50
45700;PMS5003;36277;32.852;-116.998;2022-12-16T10:25:58;15.00;15.00;14.00
45700;PMS5003;36277;32.852;-116.998;2022-12-16T10:29:09;11.25;11.25;10.00
45700;PMS5003;36277;32.852;-116.998;2022-12-16T10:32:04;12.00;12.00;10.75
45700;PMS5003;36277;32.852;-116.998;2022-12-16T10:34:59;13.25;13.25;11.25
45700;PMS5003;36277;32.852;-116.998;2022-12-16T10:37:46;12.75;12.75;10.50
45700;PMS5003;36277;32.852;-116.998;2022-12-16T10:40:32;6.00;6.00;4.75
45700;PMS5003;36277;32.852;-116.998;2022-12-16T10:43:22;12.25;12.25;11.00
45700;PMS5003;36277;32.852;-116.998;2022-12-16T10:46:19;12.25;12.25;10.50
45700;PMS5003;36277;32.852;-116.998;2022-12-16T10:49:10;12.25;12.25;11.25
45700;PMS5003;36277;32.852;-116.998;2022-12-16T10:51:57;11.75;11.75;10.75
45700;PMS5003;36277;32.852;-116.998;2022-12-16T10:54:43;11.00;11.00;10.00
45700;PMS5003;36277;32.852;-116.998;2022-12-16T11:00:49;10.00;10.00;8.00
45700;PMS5003;36277;32.852;-116.998;2022-12-16T11:03:38;12.25;12.25;10.50
45700;PMS5003;36277;32.852;-116.998;2022-12-16T11:09:23;11.25;11.25;10.00
45700;PMS5003;36277;32.852;-116.998;2022-12-16T11:12:28;11.00;11.00;10.00
45700;PMS5003;36277;32.852;-116.998;2022-12-16T11:15:22;10.50;10.50;10.00
45700;PMS5003;36277;32.852;-116.998;2022-12-16T11:18:10;10.25;10.25;8.50
45700;PMS5003;36277;32.852;-116.998;2022-12-16T11:21:03;9.50;9.50;8.50
45700;PMS5003;36277;32.852;-116.998;2022-12-16T11:26:58;8.00;8.00;7.25
45700;PMS5003;36277;32.852;-116.998;2022-12-16T11:29:51;9.00;9.00;8.00
45700;PMS5003;36277;32.852;-116.998;2022-12-16T11:32:39;7.25;7.25;6.00
45700;PMS5003;36277;32.852;-116.998;2022-12-16T11:35:38;10.00;10.00;9.00
45700;PMS5003;36277;32.852;-116.998;2022-12-16T11:38:35;10.00;10.00;9.00
45700;PMS5003;36277;32.852;-116.998;2022-12-16T11:41:26;9.50;9.50;8.75
45700;PMS5003;36277;32.852;-116.998;2022-12-16T11:44:25;10.00;10.00;9.00
45700;PMS5003;36277;32.852;-116.998;2022-12-16T11:50:20;9.00;9.00;8.00
45700;PMS5003;36277;32.852;-116.998;2022-12-16T11:53:12;4.25;4.25;3.00
45700;PMS5003;36277;32.852;-116.998;2022-12-16T11:56:16;9.75;9.75;8.50
45700;PMS5003;36277;32.852;-116.998;2022-12-16T11:59:20;10.75;10.75;9.50
45700;PMS5003;36277;32.852;-116.998;2022-12-16T12:02:11;8.50;8.50;7.50
45700;PMS5003;36277;32.852;-116.998;2022-12-16T12:05:04;9.50;9.50;8.00
45700;PMS5003;36277;32.852;-116.998;2022-12-16T12:13:45;9.75;9.75;8.50
45700;PMS5003;36277;32.852;-116.998;2022-12-16T12:30:36;8.00;8.00;7.75
45700;PMS5003;36277;32.852;-116.998;2022-12-16T12:33:33;6.00;6.00;6.00
45700;PMS5003;36277;32.852;-116.998;2022-12-16T12:37:15;7.00;7.00;7.00
45700;PMS5003;36277;32.852;-116.998;2022-12-16T12:43:25;7.00;7.00;6.00
45700;PMS5003;36277;32.852;-116.998;2022-12-16T12:46:28;5.00;5.00;5.00
45700;PMS5003;36277;32.852;-116.998;2022-12-16T12:49:40;8.00;8.00;7.00
45700;PMS5003;36277;32.852;-116.998;2022-12-16T12:59:26;6.00;6.00;6.00
45700;PMS5003;36277;32.852;-116.998;2022-12-16T13:02:23;6.50;6.50;6.25
45700;PMS5003;36277;32.852;-116.998;2022-12-16T13:05:13;7.00;7.00;7.00
45700;PMS5003;36277;32.852;-116.998;2022-12-16T13:11:16;2.50;2.50;2.25
45700;PMS5003;36277;32.852;-116.998;2022-12-16T13:14:01;5.75;5.75;5.00
45700;PMS5003;36277;32.852;-116.998;2022-12-16T13:19:43;5.50;5.50;4.75
45700;PMS5003;36277;32.852;-116.998;2022-12-16T13:22:35;5.25;5.25;5.00
45700;PMS5003;36277;32.852;-116.998;2022-12-16T13:25:30;5.25;5.25;4.50
45700;PMS5003;36277;32.852;-116.998;2022-12-16T13:28:39;3.25;3.25;3.00
45700;PMS5003;36277;32.852;-116.998;2022-12-16T13:31:25;7.25;7.25;7.00
45700;PMS5003;36277;32.852;-116.998;2022-12-16T13:37:01;6.00;6.00;5.00
45700;PMS5003;36277;32.852;-116.998;2022-12-16T13:39:59;4.75;4.75;4.50
45700;PMS5003;36277;32.852;-116.998;2022-12-16T13:45:31;7.00;7.00;6.00
45700;PMS5003;36277;32.852;-116.998;2022-12-16T13:57:26;6.75;6.75;6.00
45700;PMS5003;36277;32.852;-116.998;2022-12-16T14:00:17;4.00;4.00;4.00
45700;PMS5003;36277;32.852;-116.998;2022-12-16T14:03:25;5.50;5.50;5.00
45700;PMS5003;36277;32.852;-116.998;2022-12-16T14:06:23;6.00;6.00;5.25
45700;PMS5003;36277;32.852;-116.998;2022-12-16T14:09:27;5.20;5.20;4.80
45700;PMS5003;36277;32.852;-116.998;2022-12-16T14:15:18;4.00;4.00;4.00
45700;PMS5003;36277;32.852;-116.998;2022-12-16T14:21:59;4.00;4.00;4.00
45700;PMS5003;36277;32.852;-116.998;2022-12-16T14:25:22;5.50;5.50;5.00
45700;PMS5003;36277;32.852;-116.998;2022-12-16T14:28:13;5.00;5.00;5.00
45700;PMS5003;36277;32.852;-116.998;2022-12-16T14:31:02;5.50;5.50;5.25
45700;PMS5003;36277;32.852;-116.998;2022-12-16T14:33:51;6.00;6.00;6.00
45700;PMS5003;36277;32.852;-116.998;2022-12-16T14:36:37;5.25;5.25;4.50
45700;PMS5003;36277;32.852;-116.998;2022-12-16T14:39:27;5.00;5.00;4.50
45700;PMS5003;36277;32.852;-116.998;2022-12-16T14:42:27;5.00;5.00;4.00
45700;PMS5003;36277;32.852;-116.998;2022-12-16T14:54:26;0.00;0.00;0.00
45700;PMS5003;36277;32.852;-116.998;2022-12-16T14:57:17;2.75;2.75;2.50
45700;PMS5003;36277;32.852;-116.998;2022-12-16T15:02:52;6.00;6.00;5.80
45700;PMS5003;36277;32.852;-116.998;2022-12-16T15:05:39;7.00;7.00;5.50
45700;PMS5003;36277;32.852;-116.998;2022-12-16T15:08:26;7.00;7.00;5.00
45700;PMS5003;36277;32.852;-116.998;2022-12-16T15:11:15;7.75;7.75;6.00
45700;PMS5003;36277;32.852;-116.998;2022-12-16T15:14:03;7.00;7.00;6.00
45700;PMS5003;36277;32.852;-116.998;2022-12-16T15:16:53;5.00;5.00;4.00
45700;PMS5003;36277;32.852;-116.998;2022-12-16T15:19:48;6.00;6.00;5.80
45700;PMS5003;36277;32.852;-116.998;2022-12-16T15:22:36;6.40;6.40;5.00
45700;PMS5003;36277;32.852;-116.998;2022-12-16T15:25:27;6.00;6.00;5.00
45700;PMS5003;36277;32.852;-116.998;2022-12-16T15:28:43;4.00;4.00;4.00
45700;PMS5003;36277;32.852;-116.998;2022-12-16T15:31:45;4.00;4.00;3.40
45700;PMS5003;36277;32.852;-116.998;2022-12-16T15:37:29;3.20;3.20;3.00
45700;PMS5003;36277;32.852;-116.998;2022-12-16T15:43:27;5.20;5.20;4.60
45700;PMS5003;36277;32.852;-116.998;2022-12-16T15:46:34;4.00;4.00;3.40
45700;PMS5003;36277;32.852;-116.998;2022-12-16T15:55:31;4.80;4.80;4.20
45700;PMS5003;36277;32.852;-116.998;2022-12-16T15:58:26;3.80;3.80;3.40
45700;PMS5003;36277;32.852;-116.998;2022-12-16T16:01:22;4.00;4.00;4.00
45700;PMS5003;36277;32.852;-116.998;2022-12-16T16:04:27;4.00;4.00;4.00
45700;PMS5003;36277;32.852;-116.998;2022-12-16T16:07:22;4.40;4.40;3.80
45700;PMS5003;36277;32.852;-116.998;2022-12-16T16:10:17;5.20;5.20;4.20
45700;PMS5003;36277;32.852;-116.998;2022-12-16T16:13:06;5.80;5.80;4.60
45700;PMS5003;36277;32.852;-116.998;2022-12-16T16:15:52;4.60;4.60;4.00
45700;PMS5003;36277;32.852;-116.998;2022-12-16T16:18:37;6.00;6.00;5.00
45700;PMS5003;36277;32.852;-116.998;2022-12-16T16:21:23;5.00;5.00;4.00
45700;PMS5003;36277;32.852;-116.998;2022-12-16T16:24:07;5.00;5.00;4.00
45700;PMS5003;36277;32.852;-116.998;2022-12-16T16:26:55;3.40;3.40;3.20
45700;PMS5003;36277;32.852;-116.998;2022-12-16T16:29:42;3.80;3.80;3.40
45700;PMS5003;36277;32.852;-116.998;2022-12-16T16:32:27;2.40;2.40;1.80
45700;PMS5003;36277;32.852;-116.998;2022-12-16T16:35:11;5.00;5.00;4.00
45700;PMS5003;36277;32.852;-116.998;2022-12-16T16:37:56;66.75;54.50;30.00
45700;PMS5003;36277;32.852;-116.998;2022-12-16T16:40:41;55.00;45.25;25.50
45700;PMS5003;36277;32.852;-116.998;2022-12-16T16:43:27;25.50;25.50;19.00
45700;PMS5003;36277;32.852;-116.998;2022-12-16T16:49:03;50.25;43.25;24.25
45700;PMS5003;36277;32.852;-116.998;2022-12-16T16:51:52;36.75;34.00;20.50
45700;PMS5003;36277;32.852;-116.998;2022-12-16T16:54:38;52.00;44.50;25.25
45700;PMS5003;36277;32.852;-116.998;2022-12-16T16:57:24;51.25;43.00;25.00
45700;PMS5003;36277;32.852;-116.998;2022-12-16T17:00:11;57.00;47.75;28.50
45700;PMS5003;36277;32.852;-116.998;2022-12-16T17:02:56;51.25;43.25;24.75
45700;PMS5003;36277;32.852;-116.998;2022-12-16T17:05:40;53.00;44.00;25.50
45700;PMS5003;36277;32.852;-116.998;2022-12-16T17:08:25;47.00;38.00;22.25
45700;PMS5003;36277;32.852;-116.998;2022-12-16T17:11:15;54.00;43.75;24.50
45700;PMS5003;36277;32.852;-116.998;2022-12-16T17:14:20;49.50;42.00;23.00
45700;PMS5003;36277;32.852;-116.998;2022-12-16T17:17:05;58.50;48.00;27.00
45700;PMS5003;36277;32.852;-116.998;2022-12-16T17:19:51;57.00;46.75;24.25
45700;PMS5003;36277;32.852;-116.998;2022-12-16T17:22:38;59.25;48.75;26.50